Impacts METAR Board
IDs:

KPHX - Phoenix/Sky Harbor, AZ, US

Updated at: 1100 UTC 23 May 2018
Potential Impact None Slight Moderate High
Time 22/23Z 23/00Z 23/01Z 23/02Z 23/03Z 23/04Z 23/05Z 23/06Z 23/07Z 23/08Z 23/09Z 23/10Z 23/11Z
Temp93 92 91 89 86 84 82 81 77 77 75 73 72
Dewpt20 21 22 37 34 33 33 35 34 35 35 34 34
Altim29.71 29.70 29.70 29.72 29.74 29.77 29.79 29.80 29.81 29.82 29.82 29.82 29.82
VIS10 10 10 10 10 10 10 10 10 10 10 10 10
CIG-- -- -- -- -- -- -- -- -- -- -- -- --
CoverCLRCLRCLRCLRFEWCLRCLRCLRCLRCLRCLRCLRCLR
FltCatVFRVFRVFRVFRVFRVFRVFRVFRVFRVFRVFRVFRVFR
WX--------------------------
WDir20019018028027026026027024001308090
WSpd13 13 7 17 14 13 11 9 4 0 5 8 7
WGst20 -- -- -- -- -- -- -- -- -- -- -- --
Raw hourly METARs
KPHX 222251Z 20013G20KT 10SM CLR 34/M07 A2971 RMK AO2 SLP042 T03391067
KPHX 222351Z 19013KT 10SM CLR 33/M06 A2970 RMK AO2 SLP039 T03331061 10350 20294 56016
KPHX 230051Z 18007KT 10SM CLR 33/M06 A2970 RMK AO2 SLP041 T03281056
KPHX 230151Z 28017KT 10SM CLR 32/03 A2972 RMK AO2 SLP045 T03170028
KPHX 230251Z 27014KT 10SM FEW100 30/01 A2974 RMK AO2 SLP054 T03000011 53015
KPHX 230351Z 26013KT 10SM CLR 29/01 A2977 RMK AO2 SLP064 T02890006
KPHX 230451Z 26011KT 10SM CLR 28/01 A2979 RMK AO2 SLP070 T02780006
KPHX 230551Z 27009KT 10SM CLR 27/02 A2980 RMK AO2 SLP074 T02720017 10339 20272 51020
KPHX 230651Z 24004KT 10SM CLR 25/01 A2981 RMK AO2 SLP077 T02500011 403500211
KPHX 230751Z 00000KT 10SM CLR 25/02 A2982 RMK AO2 SLP078 T02500017
KPHX 230851Z 13005KT 10SM CLR 24/02 A2982 RMK AO2 SLP078 T02390017 51004
KPHX 230951Z 08008KT 10SM CLR 23/01 A2982 RMK AO2 SLP079 T02280011
KPHX 231051Z 09007KT 10SM CLR 22/01 A2982 RMK AO2 SLP080 T02220011



Page loaded:  11:08 UTC  |   04:08 AM Pacific  |   05:08 AM Mountain  |   06:08 AM Central  |   07:08 AM Eastern

 

ADVISORIES

FORECASTS

FORECASTS

OBSERVATIONS

USER TOOLS

ABOUT US